createdAt,value
2024-05-09T00:00:43.977Z,102992.94
2024-05-09T00:03:12.027Z,102999.28
2024-05-09T00:05:43.963Z,102997.63
2024-05-09T00:08:13.915Z,102995.03
2024-05-09T00:10:43.066Z,102994.25
2024-05-09T00:13:10.997Z,102989.94
2024-05-09T00:15:38.306Z,102991.88
2024-05-09T00:18:07.283Z,102990.22
2024-05-09T00:20:38.970Z,102993.88
2024-05-09T00:23:12.317Z,102994.81
2024-05-09T00:25:43.004Z,102986.88
2024-05-09T00:28:14.612Z,102982.53
2024-05-09T00:30:43.602Z,102979.28
2024-05-09T00:33:11.324Z,102973.31
2024-05-09T00:35:39.122Z,102969.00
2024-05-09T00:38:08.482Z,102979.66
2024-05-09T00:40:40.688Z,102971.00
2024-05-09T00:43:14.317Z,102968.56
2024-05-09T00:45:45.382Z,102970.38
2024-05-09T00:48:17.773Z,102970.53
2024-05-09T00:50:49.899Z,102964.50
2024-05-09T00:53:19.257Z,102967.28
2024-05-09T00:55:47.670Z,102968.25
2024-05-09T00:58:16.652Z,102965.75
2024-05-09T01:00:43.903Z,102965.09
2024-05-09T01:03:13.054Z,102963.38
2024-05-09T01:05:44.323Z,102957.56
2024-05-09T01:08:13.966Z,102961.31
2024-05-09T01:10:43.949Z,102959.59
2024-05-09T01:13:14.399Z,102959.63
2024-05-09T01:15:41.441Z,102964.19
2024-05-09T01:18:11.699Z,102962.59
2024-05-09T01:20:44.177Z,102966.22
2024-05-09T01:23:14.571Z,102965.38
2024-05-09T01:25:43.136Z,102965.41
2024-05-09T01:28:12.539Z,102960.34
2024-05-09T01:30:39.316Z,102953.38
2024-05-09T01:33:08.883Z,102950.88
2024-05-09T01:35:37.729Z,102948.28
2024-05-09T01:38:04.896Z,102954.56
2024-05-09T01:40:38.536Z,102952.94
2024-05-09T01:43:07.828Z,102947.03
2024-05-09T01:45:34.833Z,102948.91
2024-05-09T01:48:04.848Z,102951.66
2024-05-09T01:50:39.326Z,102955.34
2024-05-09T01:53:10.339Z,102950.16
2024-05-09T01:55:39.510Z,102951.97
2024-05-09T01:58:09.633Z,102954.75
2024-05-09T02:00:42.379Z,102953.13
2024-05-09T02:03:16.034Z,102953.25
2024-05-09T02:05:45.763Z,102956.88
2024-05-09T02:08:18.293Z,102958.72
2024-05-09T02:10:49.340Z,102957.09
2024-05-09T02:13:16.850Z,102948.31
2024-05-09T02:15:45.974Z,102944.94
2024-05-09T02:18:13.290Z,102950.41
2024-05-09T02:20:42.528Z,102948.72
2024-05-09T02:23:10.056Z,102950.63
2024-05-09T02:25:37.081Z,102948.09
2024-05-09T02:28:03.904Z,102949.94
2024-05-09T02:30:38.791Z,102953.50
2024-05-09T02:33:13.467Z,102950.16
2024-05-09T02:35:44.372Z,102950.25
2024-05-09T02:38:13.842Z,102952.09
2024-05-09T02:40:45.333Z,102954.84
2024-05-09T02:43:14.306Z,102952.31
2024-05-09T02:45:41.394Z,102953.31
2024-05-09T02:48:13.114Z,102940.97
2024-05-09T02:50:41.165Z,102946.28
2024-05-09T02:53:09.335Z,102948.13
2024-05-09T02:55:39.356Z,102935.84
2024-05-09T02:58:09.443Z,102939.50
2024-05-09T03:00:40.234Z,102935.28
2024-05-09T03:03:11.643Z,102934.47
2024-05-09T03:05:43.161Z,102936.31
2024-05-09T03:08:10.109Z,102939.94
2024-05-09T03:10:39.845Z,102928.47
2024-05-09T03:13:15.031Z,102925.00
2024-05-09T03:15:43.152Z,102933.13
2024-05-09T03:18:10.675Z,102928.78
2024-05-09T03:20:38.307Z,102931.47
2024-05-09T03:23:09.486Z,102933.31
2024-05-09T03:25:37.104Z,102926.41
2024-05-09T03:28:07.427Z,102929.97
2024-05-09T03:30:41.407Z,102924.13
2024-05-09T03:33:15.345Z,102925.06
2024-05-09T03:35:45.705Z,102926.06
2024-05-09T03:38:12.626Z,102920.81
2024-05-09T03:40:52.582Z,102931.41
2024-05-09T03:43:20.031Z,102924.44
2024-05-09T03:45:49.237Z,102921.00
2024-05-09T03:48:21.134Z,102926.31
2024-05-09T03:50:50.843Z,102925.56
2024-05-09T03:53:22.980Z,102924.78
2024-05-09T03:55:52.015Z,102924.78
2024-05-09T03:58:21.317Z,102929.28
2024-05-09T04:00:48.037Z,102925.78
2024-05-09T04:03:14.951Z,102920.56
2024-05-09T04:05:46.939Z,102932.88
2024-05-09T04:08:17.168Z,102927.66
2024-05-09T04:10:44.092Z,102933.78
2024-05-09T04:13:11.063Z,102929.47
2024-05-09T04:15:37.966Z,102929.53
2024-05-09T04:18:05.225Z,102934.81
2024-05-09T04:20:38.074Z,102933.03
2024-05-09T04:23:11.472Z,102932.00
2024-05-09T04:25:43.206Z,102933.69
2024-05-09T04:28:10.317Z,102927.44
2024-05-09T04:30:41.173Z,102931.78
2024-05-09T04:33:13.837Z,102929.06
2024-05-09T04:35:45.144Z,102936.84
2024-05-09T04:38:15.405Z,102933.19
2024-05-09T04:40:45.109Z,102939.97
2024-05-09T04:43:19.615Z,102939.75
2024-05-09T04:45:49.215Z,102938.75
2024-05-09T04:48:16.668Z,102942.03
2024-05-09T04:50:43.697Z,102941.88
2024-05-09T04:53:18.274Z,102946.91
2024-05-09T04:55:47.902Z,102944.09
2024-05-09T04:58:14.594Z,102953.47
2024-05-09T05:00:41.820Z,102942.69
2024-05-09T05:03:13.072Z,102951.22
2024-05-09T05:05:45.477Z,102946.59
2024-05-09T05:08:17.541Z,102956.09
2024-05-09T05:10:45.832Z,102960.22
2024-05-09T05:13:16.826Z,102957.34
2024-05-09T05:15:44.603Z,102961.53
2024-05-09T05:18:11.640Z,102960.38
2024-05-09T05:20:38.513Z,102968.97
2024-05-09T05:23:08.520Z,102960.88
2024-05-09T05:25:35.200Z,102960.63
2024-05-09T05:28:04.708Z,102966.47
2024-05-09T05:30:34.703Z,102959.09
2024-05-09T05:33:02.077Z,102963.22
2024-05-09T05:35:29.164Z,102966.41
2024-05-09T05:37:55.938Z,102960.88
2024-05-09T05:40:33.471Z,102966.63
2024-05-09T05:43:12.844Z,102968.06
2024-05-09T05:45:39.566Z,102963.22
2024-05-09T05:48:07.488Z,102964.72
2024-05-09T05:50:38.368Z,102972.25
2024-05-09T05:53:10.289Z,102971.00
2024-05-09T05:55:40.553Z,102971.53
2024-05-09T05:58:15.680Z,102970.31
2024-05-09T06:00:48.197Z,102967.28
2024-05-09T06:03:15.185Z,102969.59
2024-05-09T06:05:46.123Z,102969.16
2024-05-09T06:08:13.040Z,102964.53
2024-05-09T06:10:42.700Z,102961.56
2024-05-09T06:13:15.761Z,102965.53
2024-05-09T06:15:43.521Z,102961.56
2024-05-09T06:18:12.322Z,102952.44
2024-05-09T06:20:42.299Z,102955.50
2024-05-09T06:23:13.561Z,102955.94
2024-05-09T06:25:40.682Z,102958.22
2024-05-09T06:28:12.298Z,102963.16
2024-05-09T06:30:42.249Z,102944.16
2024-05-09T06:33:13.076Z,102955.88
2024-05-09T06:35:42.080Z,102958.78
2024-05-09T06:38:09.714Z,102950.34
2024-05-09T06:40:44.784Z,102947.03
2024-05-09T06:43:16.705Z,102946.31
2024-05-09T06:45:46.950Z,102943.91
2024-05-09T06:48:14.463Z,102939.91
2024-05-09T06:50:41.508Z,102944.69
2024-05-09T06:53:15.398Z,102945.75
2024-05-09T06:55:42.234Z,102946.88
2024-05-09T06:58:12.188Z,102947.03
2024-05-09T07:00:43.738Z,102944.56
2024-05-09T07:03:16.901Z,102952.75
2024-05-09T07:05:49.216Z,102947.47
2024-05-09T07:08:19.677Z,102941.31
2024-05-09T07:10:46.767Z,102948.66
2024-05-09T07:13:15.219Z,102949.66
2024-05-09T07:15:42.579Z,102945.31
2024-05-09T07:18:17.771Z,102946.28
2024-05-09T07:20:46.326Z,102945.31
2024-05-09T07:23:13.666Z,102944.28
2024-05-09T07:25:44.084Z,102946.97
2024-05-09T07:28:18.451Z,102945.00
2024-05-09T07:30:45.909Z,102945.84
2024-05-09T07:33:22.169Z,102939.63
2024-05-09T07:35:50.395Z,102941.94
2024-05-09T07:38:17.180Z,102939.13
2024-05-09T07:40:43.897Z,102935.38
2024-05-09T07:43:19.939Z,102933.50
2024-05-09T07:45:52.555Z,102927.19
2024-05-09T07:52:38.732Z,102932.78
2024-05-09T07:53:46.977Z,102926.06
2024-05-09T07:56:16.838Z,102924.69
2024-05-09T07:58:44.472Z,102920.47
2024-05-09T08:01:11.444Z,102925.03
2024-05-09T08:03:40.826Z,102920.97
2024-05-09T08:06:07.565Z,102924.25
2024-05-09T08:08:34.205Z,102926.22
2024-05-09T08:11:06.607Z,102926.19
2024-05-09T08:13:35.884Z,102922.97
2024-05-09T08:16:02.670Z,102916.00
2024-05-09T08:18:32.136Z,102913.00
2024-05-09T08:21:01.419Z,102904.50
2024-05-09T08:23:31.349Z,102910.25
2024-05-09T08:25:58.107Z,102911.53
2024-05-09T08:28:24.808Z,102911.56
2024-05-09T08:30:54.036Z,102914.53
2024-05-09T08:33:21.042Z,102919.84
2024-05-09T08:35:50.313Z,102911.19
2024-05-09T08:38:19.223Z,102902.31
2024-05-09T08:40:48.811Z,102908.50
2024-05-09T08:43:18.298Z,102911.31
2024-05-09T08:45:47.023Z,102909.47
2024-05-09T08:48:17.877Z,102915.53
2024-05-09T08:50:45.502Z,102912.53
2024-05-09T08:53:15.495Z,102906.81
2024-05-09T08:55:44.123Z,102909.66
2024-05-09T08:58:19.449Z,102904.31
2024-05-09T09:00:47.063Z,102908.78
2024-05-09T09:03:19.443Z,102906.38
2024-05-09T09:06:01.651Z,102905.66
2024-05-09T09:08:28.483Z,102903.91
2024-05-09T09:10:58.330Z,102910.13
2024-05-09T09:13:25.705Z,102904.28
2024-05-09T09:15:57.515Z,102900.22
2024-05-09T09:18:31.087Z,102900.75
2024-05-09T09:20:58.325Z,102902.44
2024-05-09T09:23:28.352Z,102906.13
2024-05-09T09:26:01.292Z,102901.13
2024-05-09T09:28:28.537Z,102894.91
2024-05-09T09:31:03.569Z,102891.41
2024-05-09T09:33:35.383Z,102898.88
2024-05-09T09:36:07.662Z,102901.16
2024-05-09T09:38:43.759Z,102898.63
2024-05-09T09:41:13.430Z,102892.84
2024-05-09T09:43:40.959Z,102891.28
2024-05-09T09:46:12.579Z,102883.91
2024-05-09T09:48:40.504Z,102878.47
2024-05-09T09:51:10.625Z,102881.31
2024-05-09T09:53:38.471Z,102880.69
2024-05-09T09:56:07.844Z,102882.34
2024-05-09T09:58:35.119Z,102883.47
2024-05-09T10:01:01.845Z,102886.00
2024-05-09T10:03:36.127Z,102882.06
2024-05-09T10:06:04.595Z,102880.41
2024-05-09T10:08:31.484Z,102871.00
2024-05-09T10:10:58.335Z,102871.38
2024-05-09T10:13:35.301Z,102860.72
2024-05-09T10:16:09.271Z,102852.78
2024-05-09T10:18:42.363Z,102857.88
2024-05-09T10:21:19.363Z,102861.25
2024-05-09T10:23:58.836Z,102854.03
2024-05-09T10:26:38.923Z,102855.44
2024-05-09T10:29:16.169Z,102847.06
2024-05-09T10:31:47.098Z,102844.28
2024-05-09T10:34:19.396Z,102842.97
2024-05-09T10:36:52.355Z,102847.31
2024-05-09T10:39:21.003Z,102846.59
2024-05-09T10:41:49.220Z,102839.03
2024-05-09T10:44:18.743Z,102840.03
2024-05-09T10:46:46.301Z,102843.72
2024-05-09T10:49:15.882Z,102827.25
2024-05-09T10:51:44.914Z,102831.06
2024-05-09T10:54:11.606Z,102829.75
2024-05-09T10:56:41.997Z,102823.47
2024-05-09T10:59:08.724Z,102831.38
2024-05-09T11:01:35.633Z,102820.13
2024-05-09T11:04:05.157Z,102825.56
2024-05-09T11:06:31.977Z,102831.75
2024-05-09T11:08:58.845Z,102822.56
2024-05-09T11:11:28.922Z,102821.16
2024-05-09T11:13:55.741Z,102818.00
2024-05-09T11:16:22.616Z,102819.16
2024-05-09T11:18:57.098Z,102817.81
2024-05-09T11:21:24.680Z,102817.03
2024-05-09T11:23:51.803Z,102807.19
2024-05-09T11:26:19.596Z,102807.53
2024-05-09T11:28:46.476Z,102807.78
2024-05-09T11:31:13.271Z,102800.50
2024-05-09T11:33:46.740Z,102803.59
2024-05-09T11:36:13.980Z,102799.69
2024-05-09T11:38:41.049Z,102803.19
2024-05-09T11:41:10.041Z,102797.72
2024-05-09T11:43:39.132Z,102796.56
2024-05-09T11:46:05.906Z,102789.88
2024-05-09T11:48:32.882Z,102790.38
2024-05-09T11:50:59.574Z,102790.78
2024-05-09T11:53:26.180Z,102789.41
2024-05-09T11:55:52.975Z,102783.38
2024-05-09T11:58:23.029Z,102784.63
2024-05-09T12:00:49.977Z,102782.63
2024-05-09T12:03:16.875Z,102780.75
2024-05-09T12:05:46.371Z,102778.47
2024-05-09T12:08:15.761Z,102784.03
2024-05-09T12:10:42.612Z,102775.56
2024-05-09T12:13:12.267Z,102773.88
2024-05-09T12:15:39.361Z,102770.13
2024-05-09T12:18:09.300Z,102776.69
2024-05-09T12:20:39.993Z,102774.25
2024-05-09T12:23:08.869Z,102770.28
2024-05-09T12:25:39.742Z,102765.69
2024-05-09T12:28:07.596Z,102765.41
2024-05-09T12:30:40.275Z,102765.88
2024-05-09T12:33:09.847Z,102763.38
2024-05-09T12:35:37.142Z,102764.59
2024-05-09T12:38:04.479Z,102761.91
2024-05-09T12:40:36.286Z,102765.75
2024-05-09T12:43:07.225Z,102758.78
2024-05-09T12:45:34.505Z,102755.06
2024-05-09T12:48:04.767Z,102757.13
2024-05-09T12:50:33.824Z,102750.41
2024-05-09T12:53:02.650Z,102760.16
2024-05-09T12:55:41.115Z,102748.03
2024-05-09T12:58:16.838Z,102748.78
2024-05-09T13:00:46.990Z,102749.72
2024-05-09T13:03:14.213Z,102743.66
2024-05-09T13:05:41.566Z,102743.25
2024-05-09T13:08:08.856Z,102745.50
2024-05-09T13:10:35.869Z,102742.47
2024-05-09T13:13:02.704Z,102744.31
2024-05-09T13:15:30.749Z,102741.22
2024-05-09T13:18:00.446Z,102741.72
2024-05-09T13:20:34.579Z,102741.94
2024-05-09T13:23:08.995Z,102736.97
2024-05-09T13:25:38.989Z,102740.75
2024-05-09T13:28:07.160Z,102738.75
2024-05-09T13:30:39.549Z,102739.28
2024-05-09T13:33:09.655Z,102741.72
2024-05-09T13:35:36.826Z,102743.91
2024-05-09T13:38:04.673Z,102740.09
2024-05-09T13:40:34.703Z,102738.34
2024-05-09T13:43:06.211Z,102746.63
2024-05-09T13:45:36.812Z,102737.59
2024-05-09T13:48:04.521Z,102738.75
2024-05-09T13:50:35.593Z,102734.13
2024-05-09T13:53:08.498Z,102736.88
2024-05-09T13:55:41.299Z,102736.44
2024-05-09T13:58:09.328Z,102736.59
2024-05-09T14:00:45.039Z,102735.63
2024-05-09T14:03:16.953Z,102727.84
2024-05-09T14:05:48.166Z,102725.44
2024-05-09T14:08:19.788Z,102724.47
2024-05-09T14:10:47.397Z,102718.66
2024-05-09T14:13:15.002Z,102727.13
2024-05-09T14:15:41.788Z,102721.34
2024-05-09T14:18:12.662Z,102720.78
2024-05-09T14:20:41.038Z,102721.34
2024-05-09T14:23:07.763Z,102713.25
2024-05-09T14:25:38.810Z,102716.06
2024-05-09T14:28:08.743Z,102712.41
2024-05-09T14:30:37.862Z,102710.13
2024-05-09T14:33:09.240Z,102711.69
2024-05-09T14:35:37.951Z,102703.22
2024-05-09T14:38:09.946Z,102705.63
2024-05-09T14:40:42.099Z,102707.63
2024-05-09T14:43:11.872Z,102710.47
2024-05-09T14:45:38.966Z,102702.50
2024-05-09T14:48:11.966Z,102696.97
2024-05-09T14:50:41.393Z,102695.91
2024-05-09T14:53:09.609Z,102690.88
2024-05-09T14:55:37.696Z,102690.88
2024-05-09T14:58:11.495Z,102691.50
2024-05-09T15:00:46.747Z,102690.34
2024-05-09T15:03:20.758Z,102684.34
2024-05-09T15:05:51.644Z,102684.94
2024-05-09T15:08:21.317Z,102677.44
2024-05-09T15:10:50.906Z,102669.78
2024-05-09T15:13:19.031Z,102663.34
2024-05-09T15:15:45.930Z,102653.78
2024-05-09T15:18:13.809Z,102671.38
2024-05-09T15:20:43.907Z,102670.41
2024-05-09T15:23:10.784Z,102668.50
2024-05-09T15:25:37.413Z,102653.41
2024-05-09T15:28:09.603Z,102652.72
2024-05-09T15:30:39.616Z,102650.16
2024-05-09T15:33:09.590Z,102650.09
2024-05-09T15:35:41.204Z,102650.75
2024-05-09T15:38:09.590Z,102652.66
2024-05-09T15:40:40.757Z,102646.50
2024-05-09T15:43:10.083Z,102642.56
2024-05-09T15:45:41.550Z,102645.72
2024-05-09T15:48:09.896Z,102648.31
2024-05-09T15:50:40.834Z,102643.69
2024-05-09T15:53:10.980Z,102636.88
2024-05-09T15:55:41.509Z,102631.84
2024-05-09T15:58:11.363Z,102632.34
2024-05-09T16:00:43.162Z,102634.88
2024-05-09T16:03:14.833Z,102628.03
2024-05-09T16:05:48.284Z,102627.94
2024-05-09T16:08:18.003Z,102624.81
2024-05-09T16:10:47.135Z,102621.25
2024-05-09T16:13:15.352Z,102628.06
2024-05-09T16:15:43.689Z,102622.53
2024-05-09T16:18:10.827Z,102615.16
2024-05-09T16:20:44.207Z,102619.41
2024-05-09T16:23:12.934Z,102615.34
2024-05-09T16:25:42.955Z,102617.03
2024-05-09T16:28:19.195Z,102612.81
2024-05-09T16:30:46.109Z,102615.88
2024-05-09T16:33:13.081Z,102605.03
2024-05-09T16:35:40.188Z,102609.78
2024-05-09T16:38:07.436Z,102602.16
2024-05-09T16:40:38.844Z,102600.94
2024-05-09T16:43:12.534Z,102606.00
2024-05-09T16:45:41.261Z,102596.84
2024-05-09T16:48:08.963Z,102596.09
2024-05-09T16:50:36.692Z,102593.81
2024-05-09T16:53:05.655Z,102594.31
2024-05-09T16:55:33.306Z,102594.97
2024-05-09T16:58:00.651Z,102597.56
2024-05-09T17:00:38.137Z,102601.84
2024-05-09T17:03:13.282Z,102592.88
2024-05-09T17:05:41.499Z,102592.34
2024-05-09T17:08:08.892Z,102600.47
2024-05-09T17:10:38.782Z,102598.09
2024-05-09T17:13:07.465Z,102598.06
2024-05-09T17:15:35.930Z,102600.81
2024-05-09T17:18:04.019Z,102599.94
2024-05-09T17:20:36.041Z,102607.75
2024-05-09T17:23:06.217Z,102600.28
2024-05-09T17:25:35.385Z,102595.97
2024-05-09T17:28:07.661Z,102595.84
2024-05-09T17:30:39.909Z,102593.34
2024-05-09T17:33:11.818Z,102596.19
2024-05-09T17:35:39.520Z,102593.56
2024-05-09T17:38:06.585Z,102591.66
2024-05-09T17:40:36.293Z,102587.44
2024-05-09T17:43:06.344Z,102586.28
2024-05-09T17:45:34.235Z,102583.91
2024-05-09T17:48:01.657Z,102577.06
2024-05-09T17:50:35.180Z,102584.72
2024-05-09T17:53:04.935Z,102582.59
2024-05-09T17:55:36.763Z,102580.72
2024-05-09T17:58:05.085Z,102584.94
2024-05-09T18:00:38.200Z,102581.84
2024-05-09T18:03:08.841Z,102587.94
2024-05-09T18:05:37.216Z,102585.09
2024-05-09T18:08:05.446Z,102586.22
2024-05-09T18:10:36.829Z,102581.19
2024-05-09T18:13:09.586Z,102582.34
2024-05-09T18:15:37.074Z,102582.50
2024-05-09T18:18:07.583Z,102585.91
2024-05-09T18:20:41.994Z,102587.13
2024-05-09T18:23:16.118Z,102588.97
2024-05-09T18:25:47.147Z,102583.69
2024-05-09T18:28:14.772Z,102585.50
2024-05-09T18:30:43.786Z,102582.66
2024-05-09T18:33:11.489Z,102581.78
2024-05-09T18:35:39.023Z,102585.53
2024-05-09T18:38:06.050Z,102582.84
2024-05-09T18:40:36.213Z,102583.09
2024-05-09T18:43:07.080Z,102582.59
2024-05-09T18:45:35.771Z,102588.31
2024-05-09T18:48:05.055Z,102586.72
2024-05-09T18:50:38.726Z,102586.91
2024-05-09T18:53:11.725Z,102586.72
2024-05-09T18:55:39.794Z,102595.00
2024-05-09T18:58:07.290Z,102595.06
2024-05-09T19:00:37.567Z,102604.47
2024-05-09T19:03:10.267Z,102600.47
2024-05-09T19:05:39.996Z,102588.56
2024-05-09T19:08:07.669Z,102588.50
2024-05-09T19:10:35.989Z,102592.53
2024-05-09T19:13:08.635Z,102596.78
2024-05-09T19:15:39.534Z,102603.91
2024-05-09T19:18:07.453Z,102598.06
2024-05-09T19:20:36.115Z,102601.13
2024-05-09T19:23:04.921Z,102605.13
2024-05-09T19:25:35.711Z,102612.09
2024-05-09T19:28:05.950Z,102606.97
2024-05-09T19:30:40.206Z,102603.94
2024-05-09T19:33:13.459Z,102604.81
2024-05-09T19:35:41.131Z,102601.91
2024-05-09T19:38:07.929Z,102601.41
2024-05-09T19:40:35.518Z,102602.03
2024-05-09T19:43:04.984Z,102608.50
2024-05-09T19:45:33.542Z,102599.97
2024-05-09T19:48:01.360Z,102604.09
2024-05-09T19:50:36.889Z,102607.09
2024-05-09T19:53:09.092Z,102610.47
2024-05-09T19:55:35.743Z,102608.28
2024-05-09T19:58:08.786Z,102606.34
2024-05-09T20:00:38.993Z,102610.34
2024-05-09T20:03:08.518Z,102602.91
2024-05-09T20:05:36.296Z,102606.78
2024-05-09T20:08:03.760Z,102605.69
2024-05-09T20:10:33.242Z,102608.91
2024-05-09T20:13:02.545Z,102612.88
2024-05-09T20:15:29.427Z,102608.91
2024-05-09T20:17:56.397Z,102606.91
2024-05-09T20:20:33.228Z,102607.47
2024-05-09T20:23:08.361Z,102603.91
2024-05-09T20:25:35.085Z,102620.34
2024-05-09T20:28:04.358Z,102609.16
2024-05-09T20:30:33.164Z,102614.94
2024-05-09T20:33:08.795Z,102616.22
2024-05-09T20:35:38.922Z,102611.47
2024-05-09T20:38:07.949Z,102613.59
2024-05-09T20:40:37.850Z,102620.25
2024-05-09T20:43:07.038Z,102622.50
2024-05-09T20:45:36.730Z,102620.16
2024-05-09T20:48:03.894Z,102620.50
2024-05-09T20:50:38.816Z,102624.47
2024-05-09T20:53:13.441Z,102622.22
2024-05-09T20:55:41.983Z,102626.19
2024-05-09T20:58:09.517Z,102619.34
2024-05-09T21:00:42.590Z,102627.78
2024-05-09T21:03:13.229Z,102617.66
2024-05-09T21:05:41.236Z,102619.91
2024-05-09T21:08:08.104Z,102620.94
2024-05-09T21:10:37.654Z,102623.19
2024-05-09T21:13:05.858Z,102623.41
2024-05-09T21:15:33.397Z,102621.91
2024-05-09T21:18:00.278Z,102626.91
2024-05-09T21:20:33.421Z,102616.66
2024-05-09T21:23:01.072Z,102626.66
2024-05-09T21:25:30.977Z,102616.53
2024-05-09T21:27:57.889Z,102612.47
2024-05-09T21:30:37.007Z,102621.63
2024-05-09T21:33:09.907Z,102621.00
2024-05-09T21:35:40.383Z,102616.06
2024-05-09T21:38:07.694Z,102617.22
2024-05-09T21:40:36.238Z,102615.53
2024-05-09T21:43:05.003Z,102614.78
2024-05-09T21:45:35.099Z,102618.59
2024-05-09T21:48:05.676Z,102619.75
2024-05-09T21:50:39.366Z,102620.72
2024-05-09T21:53:10.799Z,102619.13
2024-05-09T21:55:40.179Z,102615.78
2024-05-09T21:58:06.872Z,102623.03
2024-05-09T22:00:38.077Z,102618.00
2024-05-09T22:03:07.685Z,102620.78
2024-05-09T22:05:47.800Z,102614.91
2024-05-09T22:08:17.111Z,102623.84
2024-05-09T22:10:44.154Z,102624.03
2024-05-09T22:13:10.871Z,102618.81
2024-05-09T22:15:41.306Z,102619.78
2024-05-09T22:18:10.137Z,102616.44
2024-05-09T22:20:46.774Z,102619.31
2024-05-09T22:23:15.100Z,102617.69
2024-05-09T22:25:42.481Z,102620.56
2024-05-09T22:28:10.012Z,102616.31
2024-05-09T22:30:39.385Z,102617.34
2024-05-09T22:33:09.181Z,102620.22
2024-05-09T22:35:37.227Z,102617.75
2024-05-09T22:38:04.191Z,102611.97
2024-05-09T22:40:42.982Z,102612.25
2024-05-09T22:43:21.727Z,102631.94
2024-05-09T22:45:50.527Z,102620.63
2024-05-09T22:48:17.967Z,102618.31
2024-05-09T22:50:44.911Z,102623.06
2024-05-09T22:53:11.590Z,102631.25
2024-05-09T22:55:38.225Z,102619.09
2024-05-09T22:58:05.239Z,102627.28
2024-05-09T23:00:33.319Z,102617.88
2024-05-09T23:03:01.767Z,102618.06
2024-05-09T23:05:28.924Z,102622.63
2024-05-09T23:07:55.839Z,102628.13
2024-05-09T23:10:31.735Z,102622.16
2024-05-09T23:13:08.508Z,102622.25
2024-05-09T23:15:37.018Z,102625.94
2024-05-09T23:18:04.193Z,102621.56
2024-05-09T23:20:37.064Z,102621.78
2024-05-09T23:23:10.532Z,102617.50
2024-05-09T23:25:43.674Z,102622.22
2024-05-09T23:28:13.230Z,102619.88
2024-05-09T23:30:42.581Z,102616.75
2024-05-09T23:33:12.095Z,102612.53
2024-05-09T23:35:43.486Z,102614.63
2024-05-09T23:38:10.638Z,102608.66
2024-05-09T23:40:43.181Z,102609.78
2024-05-09T23:43:13.220Z,102612.53
2024-05-09T23:45:40.743Z,102603.31
2024-05-09T23:48:08.129Z,102609.66
2024-05-09T23:50:39.154Z,102608.13
2024-05-09T23:53:08.769Z,102602.22
2024-05-09T23:55:36.639Z,102602.53
2024-05-09T23:58:06.763Z,102608.84
